createdAt,value
2022-08-26T00:01:24.266Z,100.00
2022-08-26T00:03:56.730Z,100.00
2022-08-26T00:06:24.896Z,100.00
2022-08-26T00:08:51.438Z,100.00
2022-08-26T00:11:26.409Z,100.00
2022-08-26T00:13:54.101Z,100.00
2022-08-26T00:16:21.067Z,100.00
2022-08-26T00:18:47.479Z,100.00
2022-08-26T00:21:13.964Z,100.00
2022-08-26T00:23:40.728Z,100.00
2022-08-26T00:26:08.357Z,100.00
2022-08-26T00:28:37.735Z,100.00
2022-08-26T00:31:04.513Z,100.00
2022-08-26T00:33:33.405Z,100.00
2022-08-26T00:36:01.678Z,100.00
2022-08-26T00:38:29.100Z,100.00
2022-08-26T00:40:56.787Z,100.00
2022-08-26T00:43:24.252Z,100.00
2022-08-26T00:46:02.996Z,100.00
2022-08-26T00:48:31.820Z,100.00
2022-08-26T00:51:02.564Z,100.00
2022-08-26T00:53:32.331Z,100.00
2022-08-26T00:56:04.470Z,100.00
2022-08-26T00:58:32.034Z,100.00
2022-08-26T01:00:58.519Z,100.00
2022-08-26T01:03:25.984Z,100.00
2022-08-26T01:05:55.288Z,100.00
2022-08-26T01:08:23.165Z,100.00
2022-08-26T01:10:52.397Z,100.00
2022-08-26T01:13:23.188Z,100.00
2022-08-26T01:15:55.904Z,100.00
2022-08-26T01:18:22.906Z,100.00
2022-08-26T01:20:58.203Z,100.00
2022-08-26T01:23:28.347Z,100.00
2022-08-26T01:25:59.423Z,100.00
2022-08-26T01:28:28.898Z,100.00
2022-08-26T01:30:57.274Z,100.00
2022-08-26T01:33:29.710Z,100.00
2022-08-26T01:36:06.479Z,100.00
2022-08-26T01:38:33.203Z,100.00
2022-08-26T01:41:00.683Z,100.00
2022-08-26T01:43:29.441Z,100.00
2022-08-26T01:45:57.131Z,100.00
2022-08-26T01:48:26.475Z,100.00
2022-08-26T01:50:53.782Z,100.00
2022-08-26T01:53:22.335Z,100.00
2022-08-26T01:55:51.372Z,100.00
2022-08-26T01:58:24.488Z,100.00
2022-08-26T02:00:51.837Z,100.00
2022-08-26T02:03:21.736Z,100.00
2022-08-26T02:05:53.327Z,100.00
2022-08-26T02:08:40.098Z,100.00
2022-08-26T02:11:06.881Z,100.00
2022-08-26T02:13:34.790Z,100.00
2022-08-26T02:16:03.491Z,100.00
2022-08-26T02:18:33.289Z,100.00
2022-08-26T02:21:00.490Z,100.00
2022-08-26T02:23:26.970Z,100.00
2022-08-26T02:26:03.427Z,100.00
2022-08-26T02:28:34.251Z,100.00
2022-08-26T02:31:00.756Z,100.00
2022-08-26T02:33:29.606Z,100.00
2022-08-26T02:35:56.212Z,100.00
2022-08-26T02:38:23.396Z,100.00
2022-08-26T02:40:50.218Z,100.00
2022-08-26T02:43:17.564Z,100.00
2022-08-26T02:45:44.371Z,100.00
2022-08-26T02:48:13.084Z,100.00
2022-08-26T02:50:40.644Z,100.00
2022-08-26T02:53:09.823Z,100.00
2022-08-26T02:55:36.872Z,100.00
2022-08-26T02:58:03.627Z,100.00
2022-08-26T03:00:31.422Z,100.00
2022-08-26T03:02:58.487Z,100.00
2022-08-26T03:05:25.190Z,100.00
2022-08-26T03:07:51.792Z,100.00
2022-08-26T03:10:18.568Z,100.00
2022-08-26T03:12:48.161Z,100.00
2022-08-26T03:15:17.606Z,100.00
2022-08-26T03:17:45.604Z,100.00
2022-08-26T03:20:12.063Z,100.00
2022-08-26T03:22:40.294Z,100.00
2022-08-26T03:25:09.297Z,100.00
2022-08-26T03:27:36.021Z,100.00
2022-08-26T03:30:21.401Z,100.00
2022-08-26T03:32:47.844Z,100.00
2022-08-26T03:35:14.972Z,100.00
2022-08-26T03:37:41.406Z,100.00
2022-08-26T03:40:10.507Z,100.00
2022-08-26T03:42:41.372Z,100.00
2022-08-26T03:45:12.609Z,100.00
2022-08-26T03:47:39.777Z,100.00
2022-08-26T03:50:07.169Z,100.00
2022-08-26T03:52:34.117Z,100.00
2022-08-26T03:55:00.524Z,100.00
2022-08-26T03:57:27.185Z,100.00
2022-08-26T03:59:54.518Z,100.00
2022-08-26T04:02:20.958Z,100.00
2022-08-26T04:04:47.553Z,100.00
2022-08-26T04:07:14.123Z,100.00
2022-08-26T04:09:41.641Z,100.00
2022-08-26T04:12:08.271Z,100.00
2022-08-26T04:14:38.227Z,100.00
2022-08-26T04:17:05.599Z,100.00
2022-08-26T04:19:33.540Z,100.00
2022-08-26T04:21:59.996Z,100.00
2022-08-26T04:24:27.852Z,100.00
2022-08-26T04:26:56.567Z,100.00
2022-08-26T04:29:25.425Z,100.00
2022-08-26T04:31:55.567Z,100.00
2022-08-26T04:34:27.289Z,100.00
2022-08-26T04:36:56.163Z,100.00
2022-08-26T04:39:22.633Z,100.00
2022-08-26T04:41:50.300Z,100.00
2022-08-26T04:44:17.945Z,100.00
2022-08-26T04:46:44.690Z,100.00
2022-08-26T04:49:11.445Z,100.00
2022-08-26T04:51:38.018Z,100.00
2022-08-26T04:54:07.014Z,100.00
2022-08-26T04:56:35.490Z,100.00
2022-08-26T04:59:03.014Z,100.00
2022-08-26T05:01:31.720Z,100.00
2022-08-26T05:03:58.508Z,100.00
2022-08-26T05:06:26.164Z,100.00
2022-08-26T05:08:53.089Z,100.00
2022-08-26T05:11:20.366Z,100.00
2022-08-26T05:13:49.065Z,100.00
2022-08-26T05:16:16.857Z,100.00
2022-08-26T05:18:45.037Z,100.00
2022-08-26T05:21:30.796Z,100.00
2022-08-26T05:23:57.256Z,100.00
2022-08-26T05:26:24.775Z,100.00
2022-08-26T05:28:54.721Z,100.00
2022-08-26T05:31:29.145Z,100.00
2022-08-26T05:33:57.590Z,100.00
2022-08-26T05:36:26.864Z,100.00
2022-08-26T05:38:53.564Z,100.00
2022-08-26T05:41:23.011Z,100.00
2022-08-26T05:43:49.420Z,100.00
2022-08-26T05:46:16.275Z,100.00
2022-08-26T05:48:44.412Z,100.00
2022-08-26T05:51:11.792Z,100.00
2022-08-26T05:53:38.918Z,100.00
2022-08-26T05:56:06.193Z,100.00
2022-08-26T05:58:34.393Z,100.00
2022-08-26T06:01:04.283Z,100.00
2022-08-26T06:03:31.923Z,100.00
2022-08-26T06:05:58.323Z,100.00
2022-08-26T06:08:24.837Z,100.00
2022-08-26T06:10:56.912Z,100.00
2022-08-26T06:13:31.869Z,100.00
2022-08-26T06:15:59.286Z,100.00
2022-08-26T06:18:35.420Z,100.00
2022-08-26T06:21:12.998Z,100.00
2022-08-26T06:23:59.812Z,100.00
2022-08-26T06:26:27.176Z,100.00
2022-08-26T06:28:55.428Z,100.00
2022-08-26T06:31:23.021Z,100.00
2022-08-26T06:33:50.676Z,100.00
2022-08-26T06:36:25.244Z,100.00
2022-08-26T06:38:52.387Z,100.00
2022-08-26T06:41:21.135Z,100.00
2022-08-26T06:43:47.817Z,100.00
2022-08-26T06:46:16.610Z,100.00
2022-08-26T06:48:43.764Z,100.00
2022-08-26T06:51:13.081Z,100.00
2022-08-26T06:53:41.110Z,100.00
2022-08-26T06:56:10.091Z,100.00
2022-08-26T06:58:38.258Z,100.00
2022-08-26T07:01:24.713Z,100.00
2022-08-26T07:03:52.001Z,100.00
2022-08-26T07:06:20.750Z,100.00
2022-08-26T07:08:47.701Z,100.00
2022-08-26T07:11:14.491Z,100.00
2022-08-26T07:13:41.035Z,100.00
2022-08-26T07:16:14.101Z,100.00
2022-08-26T07:18:44.916Z,100.00
2022-08-26T07:21:13.948Z,100.00
2022-08-26T07:23:41.352Z,100.00
2022-08-26T07:26:10.285Z,100.00
2022-08-26T07:28:37.098Z,100.00
2022-08-26T07:31:09.653Z,100.00
2022-08-26T07:33:37.032Z,100.00
2022-08-26T07:36:04.200Z,98.97
2022-08-26T07:38:30.791Z,96.58
2022-08-26T07:41:00.419Z,94.59
2022-08-26T07:43:30.366Z,94.38
2022-08-26T07:46:00.917Z,92.60
2022-08-26T07:48:28.316Z,93.65
2022-08-26T07:50:57.855Z,92.59
2022-08-26T07:53:24.404Z,90.67
2022-08-26T07:55:51.209Z,89.84
2022-08-26T07:58:18.758Z,89.49
2022-08-26T08:00:45.401Z,87.96
2022-08-26T08:03:12.695Z,88.20
2022-08-26T08:05:41.252Z,88.51
2022-08-26T08:08:26.648Z,86.43
2022-08-26T08:10:55.262Z,85.90
2022-08-26T08:13:23.003Z,85.63
2022-08-26T08:15:50.341Z,85.69
2022-08-26T08:18:17.231Z,85.91
2022-08-26T08:20:47.634Z,84.85
2022-08-26T08:23:31.583Z,85.54
2022-08-26T08:26:05.438Z,84.85
2022-08-26T08:28:32.139Z,84.66
2022-08-26T08:30:59.068Z,84.56
2022-08-26T08:33:26.202Z,85.36
2022-08-26T08:35:52.690Z,85.22
2022-08-26T08:38:19.121Z,85.60
2022-08-26T08:40:45.987Z,83.13
2022-08-26T08:43:14.459Z,82.25
2022-08-26T08:45:41.964Z,81.19
2022-08-26T08:48:11.824Z,77.02
2022-08-26T08:50:49.100Z,76.94
2022-08-26T08:53:30.487Z,77.28
2022-08-26T08:56:00.784Z,78.15
2022-08-26T08:58:40.250Z,75.92
2022-08-26T09:01:09.753Z,77.35
2022-08-26T09:03:50.476Z,75.85
2022-08-26T09:06:18.734Z,76.04
2022-08-26T09:08:46.875Z,75.18
2022-08-26T09:11:17.712Z,75.49
2022-08-26T09:13:45.131Z,75.54
2022-08-26T09:16:16.013Z,74.63
2022-08-26T09:18:48.769Z,75.37
2022-08-26T09:21:17.837Z,75.87
2022-08-26T09:23:47.007Z,75.77
2022-08-26T09:26:21.402Z,77.68
2022-08-26T09:28:56.167Z,78.47
2022-08-26T09:31:34.274Z,78.86
2022-08-26T09:34:04.745Z,79.82
2022-08-26T09:36:39.528Z,79.68
2022-08-26T09:39:27.608Z,80.02
2022-08-26T09:42:04.871Z,80.65
2022-08-26T09:44:31.691Z,80.09
2022-08-26T09:47:01.665Z,78.41
2022-08-26T09:49:36.285Z,78.80
2022-08-26T09:52:07.805Z,83.43
2022-08-26T09:54:35.197Z,86.96
2022-08-26T09:57:16.904Z,89.12
2022-08-26T09:59:43.768Z,93.10
2022-08-26T10:02:20.743Z,95.88
2022-08-26T10:04:55.355Z,97.10
2022-08-26T10:07:38.846Z,95.80
2022-08-26T10:10:09.234Z,96.10
2022-08-26T10:12:39.636Z,97.58
2022-08-26T10:15:10.815Z,98.90
2022-08-26T10:17:41.548Z,100.00
2022-08-26T10:20:22.555Z,100.00
2022-08-26T10:22:50.153Z,100.00
2022-08-26T10:25:20.273Z,97.51
2022-08-26T10:27:53.385Z,96.57
2022-08-26T10:30:22.496Z,96.67
2022-08-26T10:32:51.272Z,99.09
2022-08-26T10:35:19.277Z,100.00
2022-08-26T10:37:50.929Z,100.00
2022-08-26T10:40:29.266Z,100.00
2022-08-26T10:43:08.542Z,100.00
2022-08-26T10:45:38.839Z,100.00
2022-08-26T10:48:06.896Z,100.00
2022-08-26T10:50:35.453Z,100.00
2022-08-26T10:53:03.724Z,100.00
2022-08-26T10:55:43.053Z,100.00
2022-08-26T10:58:13.997Z,100.00
2022-08-26T11:01:16.819Z,100.00
2022-08-26T11:03:50.293Z,100.00
2022-08-26T11:06:19.563Z,99.31
2022-08-26T11:08:49.978Z,98.15
2022-08-26T11:11:35.237Z,100.00
2022-08-26T11:14:05.026Z,100.00
2022-08-26T11:16:34.615Z,98.61
2022-08-26T11:19:01.088Z,98.91
2022-08-26T11:21:47.689Z,96.58
2022-08-26T11:24:34.372Z,95.11
2022-08-26T11:27:02.315Z,95.09
2022-08-26T11:29:56.168Z,95.22
2022-08-26T11:32:26.914Z,92.06
2022-08-26T11:34:56.330Z,92.73
2022-08-26T11:37:26.267Z,93.50
2022-08-26T11:39:56.882Z,93.27
2022-08-26T11:42:31.293Z,93.88
2022-08-26T11:44:58.350Z,93.37
2022-08-26T11:47:26.749Z,93.83
2022-08-26T11:50:27.638Z,93.81
2022-08-26T11:53:01.959Z,93.88
2022-08-26T11:55:30.270Z,93.32
2022-08-26T11:57:58.219Z,93.23
2022-08-26T12:00:27.444Z,92.17
2022-08-26T12:03:01.996Z,91.26
2022-08-26T12:05:35.760Z,87.83
2022-08-26T12:08:08.997Z,86.44
2022-08-26T12:10:36.577Z,86.43
2022-08-26T12:13:03.810Z,85.33
2022-08-26T12:15:32.025Z,85.32
2022-08-26T12:18:15.879Z,84.57
2022-08-26T12:20:48.620Z,83.81
2022-08-26T12:23:21.997Z,82.51
2022-08-26T12:25:50.021Z,81.78
2022-08-26T12:28:16.496Z,83.92
2022-08-26T12:31:04.564Z,80.82
2022-08-26T12:33:31.947Z,78.93
2022-08-26T12:36:00.046Z,79.13
2022-08-26T12:38:26.952Z,82.33
2022-08-26T12:40:53.677Z,77.36
2022-08-26T12:43:46.332Z,77.81
2022-08-26T12:46:16.218Z,74.56
2022-08-26T12:48:45.767Z,74.58
2022-08-26T12:51:26.483Z,72.43
2022-08-26T12:53:53.385Z,71.38
2022-08-26T12:56:40.118Z,72.16
2022-08-26T12:59:23.899Z,71.07
2022-08-26T13:01:51.607Z,73.81
2022-08-26T13:04:36.569Z,73.20
2022-08-26T13:07:32.252Z,75.24
2022-08-26T13:09:58.994Z,76.21
2022-08-26T13:12:26.856Z,75.58
2022-08-26T13:14:54.031Z,70.95
2022-08-26T13:17:21.078Z,65.57
2022-08-26T13:19:47.664Z,69.18
2022-08-26T13:22:14.798Z,69.66
2022-08-26T13:24:42.495Z,67.30
2022-08-26T13:27:10.361Z,61.31
2022-08-26T13:29:37.541Z,60.89
2022-08-26T13:32:05.419Z,61.28
2022-08-26T13:34:32.550Z,60.22
2022-08-26T13:36:59.219Z,61.39
2022-08-26T13:39:26.139Z,60.28
2022-08-26T13:41:53.192Z,58.37
2022-08-26T13:44:19.922Z,56.46
2022-08-26T13:46:46.373Z,57.97
2022-08-26T13:49:12.901Z,58.32
2022-08-26T13:51:39.599Z,57.46
2022-08-26T13:54:06.274Z,59.67
2022-08-26T13:56:33.011Z,59.43
2022-08-26T13:58:59.868Z,60.33
2022-08-26T14:01:27.689Z,59.66
2022-08-26T14:03:54.246Z,60.55
2022-08-26T14:06:21.226Z,61.46
2022-08-26T14:08:48.059Z,56.64
2022-08-26T14:11:14.719Z,58.04
2022-08-26T14:13:41.278Z,58.46
2022-08-26T14:16:09.306Z,57.92
2022-08-26T14:18:41.838Z,61.52
2022-08-26T14:21:11.697Z,63.98
2022-08-26T14:23:38.271Z,74.64
2022-08-26T14:26:08.237Z,75.76
2022-08-26T14:28:35.539Z,83.57
2022-08-26T14:31:02.602Z,80.71
2022-08-26T14:33:31.203Z,81.84
2022-08-26T14:36:17.880Z,83.17
2022-08-26T14:38:46.999Z,82.03
2022-08-26T14:41:16.708Z,82.46
2022-08-26T14:43:46.490Z,86.56
2022-08-26T14:46:14.526Z,82.61
2022-08-26T14:48:41.152Z,81.14
2022-08-26T14:51:08.095Z,81.06
2022-08-26T14:53:53.272Z,80.67
2022-08-26T14:56:19.823Z,80.84
2022-08-26T14:58:46.216Z,82.50
2022-08-26T15:01:13.105Z,78.13
2022-08-26T15:03:41.258Z,79.19
2022-08-26T15:06:08.373Z,81.25
2022-08-26T15:08:36.644Z,78.52
2022-08-26T15:11:04.184Z,77.72
2022-08-26T15:13:30.641Z,74.67
2022-08-26T15:15:57.109Z,74.96
2022-08-26T15:18:24.747Z,75.65
2022-08-26T15:20:51.199Z,78.82
2022-08-26T15:23:17.647Z,77.98
2022-08-26T15:25:46.999Z,79.17
2022-08-26T15:28:13.547Z,79.28
2022-08-26T15:30:40.067Z,78.42
2022-08-26T15:33:15.301Z,77.32
2022-08-26T15:35:42.913Z,79.06
2022-08-26T15:38:09.903Z,80.39
2022-08-26T15:40:36.560Z,80.42
2022-08-26T15:43:18.493Z,79.21
2022-08-26T15:45:50.620Z,77.80
2022-08-26T15:48:17.025Z,80.69
2022-08-26T15:50:49.640Z,82.82
2022-08-26T15:53:16.203Z,82.89
2022-08-26T15:55:42.597Z,80.81
2022-08-26T15:58:10.425Z,81.76
2022-08-26T16:00:37.500Z,81.85
2022-08-26T16:03:04.152Z,83.89
2022-08-26T16:05:30.700Z,85.73
2022-08-26T16:07:57.851Z,87.48
2022-08-26T16:10:24.916Z,89.09
2022-08-26T16:12:51.401Z,90.36
2022-08-26T16:15:18.153Z,91.19
2022-08-26T16:17:45.542Z,91.65
2022-08-26T16:20:12.100Z,92.39
2022-08-26T16:22:38.690Z,92.46
2022-08-26T16:25:07.424Z,93.29
2022-08-26T16:27:33.815Z,94.36
2022-08-26T16:30:00.392Z,94.82
2022-08-26T16:32:30.765Z,95.07
2022-08-26T16:34:58.680Z,95.58
2022-08-26T16:37:25.122Z,95.96
2022-08-26T16:39:51.758Z,95.93
2022-08-26T16:42:18.300Z,95.11
2022-08-26T16:44:44.922Z,94.57
2022-08-26T16:47:12.647Z,95.68
2022-08-26T16:49:39.640Z,96.44
2022-08-26T16:52:06.961Z,96.08
2022-08-26T16:54:33.776Z,95.99
2022-08-26T16:57:00.273Z,96.00
2022-08-26T16:59:26.788Z,95.52
2022-08-26T17:01:54.514Z,96.07
2022-08-26T17:04:21.909Z,96.83
2022-08-26T17:06:48.388Z,97.52
2022-08-26T17:09:14.778Z,98.20
2022-08-26T17:11:41.410Z,98.09
2022-08-26T17:14:10.211Z,98.06
2022-08-26T17:16:36.775Z,98.16
2022-08-26T17:19:04.554Z,99.15
2022-08-26T17:21:32.255Z,99.65
2022-08-26T17:23:59.282Z,100.00
2022-08-26T17:26:26.435Z,100.00
2022-08-26T17:28:53.527Z,100.00
2022-08-26T17:31:20.650Z,100.00
2022-08-26T17:33:53.224Z,100.00
2022-08-26T17:36:20.567Z,100.00
2022-08-26T17:38:47.021Z,100.00
2022-08-26T17:41:16.530Z,100.00
2022-08-26T17:43:42.987Z,100.00
2022-08-26T17:46:10.332Z,100.00
2022-08-26T17:48:38.075Z,100.00
2022-08-26T17:51:08.793Z,100.00
2022-08-26T17:53:35.520Z,100.00
2022-08-26T17:56:02.149Z,100.00
2022-08-26T17:58:28.755Z,100.00
2022-08-26T18:00:55.894Z,100.00
2022-08-26T18:03:23.575Z,100.00
2022-08-26T18:05:51.432Z,100.00
2022-08-26T18:08:18.262Z,100.00
2022-08-26T18:10:45.201Z,100.00
2022-08-26T18:13:11.751Z,100.00
2022-08-26T18:15:39.209Z,100.00
2022-08-26T18:18:05.848Z,100.00
2022-08-26T18:20:32.380Z,100.00
2022-08-26T18:22:59.118Z,100.00
2022-08-26T18:25:25.641Z,100.00
2022-08-26T18:27:52.405Z,100.00
2022-08-26T18:30:20.774Z,100.00
2022-08-26T18:32:48.125Z,100.00
2022-08-26T18:35:14.929Z,100.00
2022-08-26T18:37:41.425Z,100.00
2022-08-26T18:40:10.429Z,100.00
2022-08-26T18:42:36.926Z,100.00
2022-08-26T18:45:04.389Z,100.00
2022-08-26T18:47:31.700Z,100.00
2022-08-26T18:49:58.204Z,100.00
2022-08-26T18:52:24.861Z,100.00
2022-08-26T18:54:51.365Z,100.00
2022-08-26T18:57:17.941Z,100.00
2022-08-26T18:59:44.478Z,100.00
2022-08-26T19:02:11.630Z,100.00
2022-08-26T19:04:41.279Z,100.00
2022-08-26T19:07:07.705Z,100.00
2022-08-26T19:09:35.967Z,100.00
2022-08-26T19:12:03.845Z,100.00
2022-08-26T19:14:31.643Z,100.00
2022-08-26T19:16:58.439Z,100.00
2022-08-26T19:19:25.003Z,100.00
2022-08-26T19:22:07.560Z,100.00
2022-08-26T19:24:34.389Z,100.00
2022-08-26T19:27:01.787Z,100.00
2022-08-26T19:29:29.850Z,100.00
2022-08-26T19:31:57.244Z,100.00
2022-08-26T19:34:24.318Z,100.00
2022-08-26T19:36:53.115Z,100.00
2022-08-26T19:39:20.240Z,100.00
2022-08-26T19:41:46.871Z,100.00
2022-08-26T19:44:35.069Z,100.00
2022-08-26T19:47:03.618Z,100.00
2022-08-26T19:49:30.089Z,100.00
2022-08-26T19:51:56.682Z,100.00
2022-08-26T19:54:23.166Z,100.00
2022-08-26T19:56:49.893Z,100.00
2022-08-26T19:59:48.363Z,100.00
2022-08-26T20:02:15.033Z,100.00
2022-08-26T20:04:41.981Z,100.00
2022-08-26T20:07:09.153Z,100.00
2022-08-26T20:09:36.347Z,100.00
2022-08-26T20:12:05.208Z,100.00
2022-08-26T20:14:31.939Z,100.00
2022-08-26T20:16:58.583Z,100.00
2022-08-26T20:19:43.405Z,100.00
2022-08-26T20:22:10.444Z,100.00
2022-08-26T20:24:40.358Z,100.00
2022-08-26T20:27:08.076Z,100.00
2022-08-26T20:29:35.184Z,100.00
2022-08-26T20:32:02.674Z,100.00
2022-08-26T20:34:29.773Z,100.00
2022-08-26T20:36:56.331Z,100.00
2022-08-26T20:39:22.852Z,100.00
2022-08-26T20:41:49.508Z,100.00
2022-08-26T20:44:17.610Z,100.00
2022-08-26T20:46:44.179Z,100.00
2022-08-26T20:49:10.689Z,100.00
2022-08-26T20:51:37.785Z,100.00
2022-08-26T20:54:05.062Z,100.00
2022-08-26T20:56:31.672Z,100.00
2022-08-26T20:59:00.448Z,100.00
2022-08-26T21:01:30.572Z,100.00
2022-08-26T21:03:57.053Z,100.00
2022-08-26T21:06:23.672Z,100.00
2022-08-26T21:08:50.230Z,100.00
2022-08-26T21:11:18.132Z,100.00
2022-08-26T21:14:03.881Z,100.00
2022-08-26T21:16:31.471Z,100.00
2022-08-26T21:18:58.325Z,100.00
2022-08-26T21:21:29.832Z,100.00
2022-08-26T21:23:56.602Z,100.00
2022-08-26T21:26:23.053Z,100.00
2022-08-26T21:28:49.609Z,100.00
2022-08-26T21:31:17.970Z,100.00
2022-08-26T21:33:44.923Z,100.00
2022-08-26T21:36:12.015Z,100.00
2022-08-26T21:38:38.751Z,100.00
2022-08-26T21:41:07.491Z,100.00
2022-08-26T21:43:35.499Z,100.00
2022-08-26T21:46:14.359Z,100.00
2022-08-26T21:48:48.735Z,100.00
2022-08-26T21:51:17.837Z,100.00
2022-08-26T21:53:44.270Z,100.00
2022-08-26T21:56:12.189Z,100.00
2022-08-26T21:58:38.950Z,100.00
2022-08-26T22:01:20.682Z,100.00
2022-08-26T22:03:47.981Z,100.00
2022-08-26T22:06:18.160Z,100.00
2022-08-26T22:08:44.544Z,100.00
2022-08-26T22:11:11.471Z,100.00
2022-08-26T22:13:39.178Z,100.00
2022-08-26T22:16:06.322Z,100.00
2022-08-26T22:18:32.981Z,100.00
2022-08-26T22:21:01.244Z,100.00
2022-08-26T22:23:28.060Z,100.00
2022-08-26T22:25:54.773Z,100.00
2022-08-26T22:28:21.682Z,100.00
2022-08-26T22:30:48.725Z,100.00
2022-08-26T22:33:16.475Z,100.00
2022-08-26T22:35:45.095Z,100.00
2022-08-26T22:38:11.742Z,100.00
2022-08-26T22:40:38.512Z,100.00
2022-08-26T22:43:06.013Z,100.00
2022-08-26T22:45:32.543Z,100.00
2022-08-26T22:47:59.681Z,100.00
2022-08-26T22:50:26.305Z,100.00
2022-08-26T22:52:52.677Z,100.00
2022-08-26T22:55:19.105Z,100.00
2022-08-26T22:57:45.477Z,100.00
2022-08-26T23:00:13.814Z,100.00
2022-08-26T23:02:40.749Z,100.00
2022-08-26T23:05:07.687Z,100.00
2022-08-26T23:07:34.359Z,100.00
2022-08-26T23:10:01.073Z,100.00
2022-08-26T23:12:28.026Z,100.00
2022-08-26T23:14:54.422Z,100.00
2022-08-26T23:17:21.405Z,100.00
2022-08-26T23:19:48.351Z,100.00
2022-08-26T23:22:16.902Z,100.00
2022-08-26T23:24:43.742Z,100.00
2022-08-26T23:27:10.227Z,100.00
2022-08-26T23:29:37.042Z,100.00
2022-08-26T23:32:05.671Z,100.00
2022-08-26T23:34:50.860Z,100.00
2022-08-26T23:37:19.242Z,100.00
2022-08-26T23:39:46.100Z,100.00
2022-08-26T23:42:12.944Z,100.00
2022-08-26T23:44:39.578Z,100.00
2022-08-26T23:47:06.704Z,100.00
2022-08-26T23:49:35.749Z,100.00
2022-08-26T23:52:22.299Z,100.00
2022-08-26T23:54:49.104Z,100.00
2022-08-26T23:57:17.017Z,100.00
2022-08-26T23:59:43.425Z,100.00
